sensor_id;sensor_type;location;lat;lon;timestamp;temperature;humidity
4739;DHT22;2383;48.632;10.156;2023-07-30T00:02:53;18.00;99.90
4739;DHT22;2383;48.632;10.156;2023-07-30T00:06:55;18.00;99.90
4739;DHT22;2383;48.632;10.156;2023-07-30T00:10:57;18.10;99.90
4739;DHT22;2383;48.632;10.156;2023-07-30T00:15:00;17.70;99.90
4739;DHT22;2383;48.632;10.156;2023-07-30T00:19:02;18.00;99.90
4739;DHT22;2383;48.632;10.156;2023-07-30T00:23:04;18.10;99.90
4739;DHT22;2383;48.632;10.156;2023-07-30T00:27:06;18.00;99.90
4739;DHT22;2383;48.632;10.156;2023-07-30T00:31:08;18.10;99.90
4739;DHT22;2383;48.632;10.156;2023-07-30T00:35:10;17.60;99.90
4739;DHT22;2383;48.632;10.156;2023-07-30T00:39:12;16.40;99.90
4739;DHT22;2383;48.632;10.156;2023-07-30T00:43:14;15.10;99.90
4739;DHT22;2383;48.632;10.156;2023-07-30T00:47:16;13.70;99.90
4739;DHT22;2383;48.632;10.156;2023-07-30T00:51:19;14.10;99.90
4739;DHT22;2383;48.632;10.156;2023-07-30T00:55:21;13.50;99.90
4739;DHT22;2383;48.632;10.156;2023-07-30T00:59:23;14.50;99.90
4739;DHT22;2383;48.632;10.156;2023-07-30T01:03:25;15.10;99.90
4739;DHT22;2383;48.632;10.156;2023-07-30T01:07:28;15.40;99.90
4739;DHT22;2383;48.632;10.156;2023-07-30T01:11:30;15.30;99.90
4739;DHT22;2383;48.632;10.156;2023-07-30T01:15:32;15.40;99.90
4739;DHT22;2383;48.632;10.156;2023-07-30T01:19:34;15.30;99.90
4739;DHT22;2383;48.632;10.156;2023-07-30T01:23:36;15.50;99.90
4739;DHT22;2383;48.632;10.156;2023-07-30T01:27:40;15.50;99.90
4739;DHT22;2383;48.632;10.156;2023-07-30T01:31:47;15.70;99.90
4739;DHT22;2383;48.632;10.156;2023-07-30T01:35:55;15.70;99.90
4739;DHT22;2383;48.632;10.156;2023-07-30T01:39:58;15.80;99.90
4739;DHT22;2383;48.632;10.156;2023-07-30T01:44:01;15.90;99.90
4739;DHT22;2383;48.632;10.156;2023-07-30T01:48:03;15.60;99.90
4739;DHT22;2383;48.632;10.156;2023-07-30T01:52:05;15.80;99.90
4739;DHT22;2383;48.632;10.156;2023-07-30T01:56:07;15.90;99.90
4739;DHT22;2383;48.632;10.156;2023-07-30T02:00:09;16.10;99.90
4739;DHT22;2383;48.632;10.156;2023-07-30T02:04:11;15.60;99.90
4739;DHT22;2383;48.632;10.156;2023-07-30T02:08:13;15.70;99.90
4739;DHT22;2383;48.632;10.156;2023-07-30T02:12:17;15.80;99.90
4739;DHT22;2383;48.632;10.156;2023-07-30T02:16:19;15.80;99.90
4739;DHT22;2383;48.632;10.156;2023-07-30T02:20:22;15.80;99.90
4739;DHT22;2383;48.632;10.156;2023-07-30T02:24:24;16.00;99.90
4739;DHT22;2383;48.632;10.156;2023-07-30T02:28:26;16.10;99.90
4739;DHT22;2383;48.632;10.156;2023-07-30T02:32:28;16.10;99.90
4739;DHT22;2383;48.632;10.156;2023-07-30T02:36:30;16.10;99.90
4739;DHT22;2383;48.632;10.156;2023-07-30T02:40:32;16.20;99.90
4739;DHT22;2383;48.632;10.156;2023-07-30T02:44:34;16.10;99.90
4739;DHT22;2383;48.632;10.156;2023-07-30T02:48:36;16.10;99.90
4739;DHT22;2383;48.632;10.156;2023-07-30T02:52:38;15.90;99.90
4739;DHT22;2383;48.632;10.156;2023-07-30T02:56:40;15.70;99.90
4739;DHT22;2383;48.632;10.156;2023-07-30T03:00:42;15.70;99.90
4739;DHT22;2383;48.632;10.156;2023-07-30T03:04:44;15.60;99.90
4739;DHT22;2383;48.632;10.156;2023-07-30T03:08:45;15.60;99.90
4739;DHT22;2383;48.632;10.156;2023-07-30T03:12:48;15.70;99.90
4739;DHT22;2383;48.632;10.156;2023-07-30T03:16:49;15.70;99.90
4739;DHT22;2383;48.632;10.156;2023-07-30T03:20:57;15.40;99.90
4739;DHT22;2383;48.632;10.156;2023-07-30T03:24:58;15.20;99.90
4739;DHT22;2383;48.632;10.156;2023-07-30T03:29:00;15.20;99.90
4739;DHT22;2383;48.632;10.156;2023-07-30T03:33:02;15.30;99.90
4739;DHT22;2383;48.632;10.156;2023-07-30T03:37:04;15.40;99.90
4739;DHT22;2383;48.632;10.156;2023-07-30T03:41:06;15.40;99.90
4739;DHT22;2383;48.632;10.156;2023-07-30T03:45:08;15.50;99.90
4739;DHT22;2383;48.632;10.156;2023-07-30T03:49:10;15.50;99.90
4739;DHT22;2383;48.632;10.156;2023-07-30T03:53:12;15.40;99.90
4739;DHT22;2383;48.632;10.156;2023-07-30T03:57:14;15.30;99.90
4739;DHT22;2383;48.632;10.156;2023-07-30T04:01:16;15.10;99.90
4739;DHT22;2383;48.632;10.156;2023-07-30T04:05:18;14.90;99.90
4739;DHT22;2383;48.632;10.156;2023-07-30T04:09:20;15.30;99.90
4739;DHT22;2383;48.632;10.156;2023-07-30T04:13:22;15.60;99.90
4739;DHT22;2383;48.632;10.156;2023-07-30T04:17:24;15.60;99.90
4739;DHT22;2383;48.632;10.156;2023-07-30T04:21:26;15.50;99.90
4739;DHT22;2383;48.632;10.156;2023-07-30T04:25:28;15.50;99.90
4739;DHT22;2383;48.632;10.156;2023-07-30T04:29:30;15.70;99.90
4739;DHT22;2383;48.632;10.156;2023-07-30T04:33:32;15.40;99.90
4739;DHT22;2383;48.632;10.156;2023-07-30T04:37:34;15.50;99.90
4739;DHT22;2383;48.632;10.156;2023-07-30T04:41:36;15.50;99.90
4739;DHT22;2383;48.632;10.156;2023-07-30T04:45:38;15.70;99.90
4739;DHT22;2383;48.632;10.156;2023-07-30T04:49:41;15.70;99.90
4739;DHT22;2383;48.632;10.156;2023-07-30T04:53:43;15.70;99.90
4739;DHT22;2383;48.632;10.156;2023-07-30T04:57:45;15.90;99.90
4739;DHT22;2383;48.632;10.156;2023-07-30T05:01:47;16.10;99.90
4739;DHT22;2383;48.632;10.156;2023-07-30T05:05:49;16.20;99.90
4739;DHT22;2383;48.632;10.156;2023-07-30T05:09:51;16.50;99.90
4739;DHT22;2383;48.632;10.156;2023-07-30T05:13:53;16.70;99.90
4739;DHT22;2383;48.632;10.156;2023-07-30T05:17:55;16.70;99.90
4739;DHT22;2383;48.632;10.156;2023-07-30T05:21:57;16.60;99.90
4739;DHT22;2383;48.632;10.156;2023-07-30T05:26:01;16.60;99.90
4739;DHT22;2383;48.632;10.156;2023-07-30T05:30:03;16.80;99.90
4739;DHT22;2383;48.632;10.156;2023-07-30T05:34:05;17.00;99.90
4739;DHT22;2383;48.632;10.156;2023-07-30T05:38:07;17.20;99.90
4739;DHT22;2383;48.632;10.156;2023-07-30T05:42:09;17.30;99.90
4739;DHT22;2383;48.632;10.156;2023-07-30T05:46:11;17.40;99.90
4739;DHT22;2383;48.632;10.156;2023-07-30T05:50:13;17.30;99.90
4739;DHT22;2383;48.632;10.156;2023-07-30T05:54:16;17.40;99.90
4739;DHT22;2383;48.632;10.156;2023-07-30T05:58:18;17.40;99.90
4739;DHT22;2383;48.632;10.156;2023-07-30T06:02:20;17.50;99.90
4739;DHT22;2383;48.632;10.156;2023-07-30T06:06:22;17.50;99.90
4739;DHT22;2383;48.632;10.156;2023-07-30T06:10:29;17.40;99.90
4739;DHT22;2383;48.632;10.156;2023-07-30T06:14:31;17.50;99.90
4739;DHT22;2383;48.632;10.156;2023-07-30T06:18:33;17.50;99.90
4739;DHT22;2383;48.632;10.156;2023-07-30T06:22:34;17.40;99.90
4739;DHT22;2383;48.632;10.156;2023-07-30T06:26:37;17.40;99.90
4739;DHT22;2383;48.632;10.156;2023-07-30T06:30:39;17.60;99.90
4739;DHT22;2383;48.632;10.156;2023-07-30T06:34:41;17.90;99.90
4739;DHT22;2383;48.632;10.156;2023-07-30T06:38:43;17.90;99.90
4739;DHT22;2383;48.632;10.156;2023-07-30T06:42:45;18.00;99.90
4739;DHT22;2383;48.632;10.156;2023-07-30T06:46:47;18.20;99.90
4739;DHT22;2383;48.632;10.156;2023-07-30T06:50:49;18.40;99.90
4739;DHT22;2383;48.632;10.156;2023-07-30T06:54:51;18.40;99.90
4739;DHT22;2383;48.632;10.156;2023-07-30T06:58:52;18.40;99.90
4739;DHT22;2383;48.632;10.156;2023-07-30T07:02:54;18.50;99.90
4739;DHT22;2383;48.632;10.156;2023-07-30T07:06:57;18.50;99.90
4739;DHT22;2383;48.632;10.156;2023-07-30T07:10:59;18.60;99.90
4739;DHT22;2383;48.632;10.156;2023-07-30T07:15:01;18.60;99.90
4739;DHT22;2383;48.632;10.156;2023-07-30T07:19:03;18.50;99.90
4739;DHT22;2383;48.632;10.156;2023-07-30T07:23:05;18.30;99.90
4739;DHT22;2383;48.632;10.156;2023-07-30T07:27:07;18.00;99.90
4739;DHT22;2383;48.632;10.156;2023-07-30T07:31:09;17.60;99.90
4739;DHT22;2383;48.632;10.156;2023-07-30T07:35:11;17.80;99.90
4739;DHT22;2383;48.632;10.156;2023-07-30T07:39:13;18.00;99.90
4739;DHT22;2383;48.632;10.156;2023-07-30T07:43:15;18.40;99.90
4739;DHT22;2383;48.632;10.156;2023-07-30T07:47:17;18.70;99.90
4739;DHT22;2383;48.632;10.156;2023-07-30T07:51:20;18.80;99.90
4739;DHT22;2383;48.632;10.156;2023-07-30T07:55:22;19.00;99.90
4739;DHT22;2383;48.632;10.156;2023-07-30T07:59:24;19.20;99.90
4739;DHT22;2383;48.632;10.156;2023-07-30T08:03:26;19.30;99.90
4739;DHT22;2383;48.632;10.156;2023-07-30T08:07:28;19.00;99.90
4739;DHT22;2383;48.632;10.156;2023-07-30T08:11:31;19.10;99.90
4739;DHT22;2383;48.632;10.156;2023-07-30T08:15:33;18.70;99.90
4739;DHT22;2383;48.632;10.156;2023-07-30T08:19:35;18.80;99.90
4739;DHT22;2383;48.632;10.156;2023-07-30T08:23:37;18.80;99.90
4739;DHT22;2383;48.632;10.156;2023-07-30T08:27:39;18.70;99.90
4739;DHT22;2383;48.632;10.156;2023-07-30T08:31:41;18.30;99.90
4739;DHT22;2383;48.632;10.156;2023-07-30T08:35:43;18.30;99.90
4739;DHT22;2383;48.632;10.156;2023-07-30T08:39:45;18.60;99.90
4739;DHT22;2383;48.632;10.156;2023-07-30T08:43:51;18.90;99.90
4739;DHT22;2383;48.632;10.156;2023-07-30T08:47:54;18.90;99.90
4739;DHT22;2383;48.632;10.156;2023-07-30T08:51:56;19.10;99.90
4739;DHT22;2383;48.632;10.156;2023-07-30T08:55:59;17.30;99.90
4739;DHT22;2383;48.632;10.156;2023-07-30T09:00:06;15.30;99.90
4739;DHT22;2383;48.632;10.156;2023-07-30T09:04:10;15.20;99.90
4739;DHT22;2383;48.632;10.156;2023-07-30T09:08:12;15.50;99.90
4739;DHT22;2383;48.632;10.156;2023-07-30T09:12:15;15.30;99.90
4739;DHT22;2383;48.632;10.156;2023-07-30T09:16:18;15.10;99.90
4739;DHT22;2383;48.632;10.156;2023-07-30T09:20:20;14.50;99.90
4739;DHT22;2383;48.632;10.156;2023-07-30T09:24:22;14.70;99.90
4739;DHT22;2383;48.632;10.156;2023-07-30T09:28:30;15.00;99.90
4739;DHT22;2383;48.632;10.156;2023-07-30T09:32:34;15.20;99.90
4739;DHT22;2383;48.632;10.156;2023-07-30T09:36:37;15.30;99.90
4739;DHT22;2383;48.632;10.156;2023-07-30T09:40:39;15.80;99.90
4739;DHT22;2383;48.632;10.156;2023-07-30T09:44:41;16.30;99.90
4739;DHT22;2383;48.632;10.156;2023-07-30T09:48:43;16.40;99.90
4739;DHT22;2383;48.632;10.156;2023-07-30T09:52:45;16.80;99.90
4739;DHT22;2383;48.632;10.156;2023-07-30T09:56:47;17.00;99.90
4739;DHT22;2383;48.632;10.156;2023-07-30T10:00:50;16.40;99.90
4739;DHT22;2383;48.632;10.156;2023-07-30T10:04:53;16.00;99.90
4739;DHT22;2383;48.632;10.156;2023-07-30T10:08:59;15.40;99.90
4739;DHT22;2383;48.632;10.156;2023-07-30T10:13:05;15.80;99.90
4739;DHT22;2383;48.632;10.156;2023-07-30T10:17:10;16.30;99.90
4739;DHT22;2383;48.632;10.156;2023-07-30T10:21:22;16.50;99.90
4739;DHT22;2383;48.632;10.156;2023-07-30T10:25:29;16.60;99.90
4739;DHT22;2383;48.632;10.156;2023-07-30T10:29:34;17.00;99.90
4739;DHT22;2383;48.632;10.156;2023-07-30T10:33:45;17.00;99.90
4739;DHT22;2383;48.632;10.156;2023-07-30T10:37:48;17.60;99.90
4739;DHT22;2383;48.632;10.156;2023-07-30T10:41:54;16.30;99.90
4739;DHT22;2383;48.632;10.156;2023-07-30T10:45:56;16.20;99.90
4739;DHT22;2383;48.632;10.156;2023-07-30T10:50:02;16.50;99.90
4739;DHT22;2383;48.632;10.156;2023-07-30T10:54:06;16.10;99.90
4739;DHT22;2383;48.632;10.156;2023-07-30T10:58:10;17.00;99.90
4739;DHT22;2383;48.632;10.156;2023-07-30T11:02:12;17.40;99.90
4739;DHT22;2383;48.632;10.156;2023-07-30T11:06:21;17.30;99.90
4739;DHT22;2383;48.632;10.156;2023-07-30T11:10:24;16.40;99.90
4739;DHT22;2383;48.632;10.156;2023-07-30T11:14:26;15.30;99.90
4739;DHT22;2383;48.632;10.156;2023-07-30T11:18:31;15.60;99.90
4739;DHT22;2383;48.632;10.156;2023-07-30T11:22:35;15.40;99.90
4739;DHT22;2383;48.632;10.156;2023-07-30T11:26:37;16.30;99.90
4739;DHT22;2383;48.632;10.156;2023-07-30T11:30:39;16.50;99.90
4739;DHT22;2383;48.632;10.156;2023-07-30T11:34:41;16.40;99.90
4739;DHT22;2383;48.632;10.156;2023-07-30T11:38:46;16.80;99.90
4739;DHT22;2383;48.632;10.156;2023-07-30T11:42:48;17.00;99.90
4739;DHT22;2383;48.632;10.156;2023-07-30T11:46:54;16.40;99.90
4739;DHT22;2383;48.632;10.156;2023-07-30T11:50:56;15.70;99.90
4739;DHT22;2383;48.632;10.156;2023-07-30T11:55:05;16.10;99.90
4739;DHT22;2383;48.632;10.156;2023-07-30T11:59:07;16.10;99.90
4739;DHT22;2383;48.632;10.156;2023-07-30T12:03:11;16.00;99.90
4739;DHT22;2383;48.632;10.156;2023-07-30T12:07:22;16.00;99.90
4739;DHT22;2383;48.632;10.156;2023-07-30T12:11:25;16.30;99.90
4739;DHT22;2383;48.632;10.156;2023-07-30T12:15:29;16.80;99.90
4739;DHT22;2383;48.632;10.156;2023-07-30T12:19:31;17.10;99.90
4739;DHT22;2383;48.632;10.156;2023-07-30T12:23:36;17.40;99.90
4739;DHT22;2383;48.632;10.156;2023-07-30T12:27:38;17.60;99.90
4739;DHT22;2383;48.632;10.156;2023-07-30T12:31:41;17.30;99.90
4739;DHT22;2383;48.632;10.156;2023-07-30T12:35:44;17.30;99.90
4739;DHT22;2383;48.632;10.156;2023-07-30T12:39:46;16.90;99.90
4739;DHT22;2383;48.632;10.156;2023-07-30T12:43:47;17.60;99.90
4739;DHT22;2383;48.632;10.156;2023-07-30T12:47:50;16.80;99.90
4739;DHT22;2383;48.632;10.156;2023-07-30T12:51:52;17.00;99.90
4739;DHT22;2383;48.632;10.156;2023-07-30T12:55:54;17.50;99.90
4739;DHT22;2383;48.632;10.156;2023-07-30T12:59:56;18.10;99.90
4739;DHT22;2383;48.632;10.156;2023-07-30T13:03:58;18.70;99.90
4739;DHT22;2383;48.632;10.156;2023-07-30T13:08:00;19.30;99.90
4739;DHT22;2383;48.632;10.156;2023-07-30T13:12:05;18.80;99.90
4739;DHT22;2383;48.632;10.156;2023-07-30T13:16:07;18.10;99.90
4739;DHT22;2383;48.632;10.156;2023-07-30T13:20:09;17.90;99.90
4739;DHT22;2383;48.632;10.156;2023-07-30T13:24:11;17.60;99.90
4739;DHT22;2383;48.632;10.156;2023-07-30T13:28:14;17.90;99.90
4739;DHT22;2383;48.632;10.156;2023-07-30T13:32:15;17.90;99.90
4739;DHT22;2383;48.632;10.156;2023-07-30T13:36:18;18.10;99.90
4739;DHT22;2383;48.632;10.156;2023-07-30T13:40:20;18.60;99.90
4739;DHT22;2383;48.632;10.156;2023-07-30T13:44:22;18.80;99.90
4739;DHT22;2383;48.632;10.156;2023-07-30T13:48:25;18.20;99.90
4739;DHT22;2383;48.632;10.156;2023-07-30T13:52:27;17.50;99.90
4739;DHT22;2383;48.632;10.156;2023-07-30T13:56:29;17.40;99.90
4739;DHT22;2383;48.632;10.156;2023-07-30T14:00:31;18.70;99.90
4739;DHT22;2383;48.632;10.156;2023-07-30T14:04:33;17.70;99.90
4739;DHT22;2383;48.632;10.156;2023-07-30T14:08:35;18.70;99.90
4739;DHT22;2383;48.632;10.156;2023-07-30T14:12:37;18.80;99.90
4739;DHT22;2383;48.632;10.156;2023-07-30T14:16:39;18.70;99.90
4739;DHT22;2383;48.632;10.156;2023-07-30T14:20:41;18.90;99.90
4739;DHT22;2383;48.632;10.156;2023-07-30T14:24:43;18.70;99.90
4739;DHT22;2383;48.632;10.156;2023-07-30T14:28:46;19.10;99.90
4739;DHT22;2383;48.632;10.156;2023-07-30T14:32:49;18.80;99.90
4739;DHT22;2383;48.632;10.156;2023-07-30T14:36:51;19.20;99.90
4739;DHT22;2383;48.632;10.156;2023-07-30T14:40:53;19.40;99.90
4739;DHT22;2383;48.632;10.156;2023-07-30T14:44:55;19.60;99.90
4739;DHT22;2383;48.632;10.156;2023-07-30T14:48:57;18.20;99.90
4739;DHT22;2383;48.632;10.156;2023-07-30T14:52:59;18.60;99.90
4739;DHT22;2383;48.632;10.156;2023-07-30T14:57:01;18.40;99.90
4739;DHT22;2383;48.632;10.156;2023-07-30T15:01:03;18.30;99.90
4739;DHT22;2383;48.632;10.156;2023-07-30T15:05:06;17.90;99.90
4739;DHT22;2383;48.632;10.156;2023-07-30T15:09:08;18.40;99.90
4739;DHT22;2383;48.632;10.156;2023-07-30T15:13:10;18.20;99.90
4739;DHT22;2383;48.632;10.156;2023-07-30T15:17:12;18.50;99.80
4739;DHT22;2383;48.632;10.156;2023-07-30T15:21:14;18.30;99.90
4739;DHT22;2383;48.632;10.156;2023-07-30T15:25:16;18.40;99.70
4739;DHT22;2383;48.632;10.156;2023-07-30T15:29:18;17.90;99.50
4739;DHT22;2383;48.632;10.156;2023-07-30T15:33:20;17.80;99.20
4739;DHT22;2383;48.632;10.156;2023-07-30T15:37:23;17.70;99.40
4739;DHT22;2383;48.632;10.156;2023-07-30T15:41:25;17.90;99.40
4739;DHT22;2383;48.632;10.156;2023-07-30T15:45:27;18.80;99.60
4739;DHT22;2383;48.632;10.156;2023-07-30T15:49:30;17.70;99.90
4739;DHT22;2383;48.632;10.156;2023-07-30T15:53:32;17.70;99.10
4739;DHT22;2383;48.632;10.156;2023-07-30T15:57:34;17.80;99.00
4739;DHT22;2383;48.632;10.156;2023-07-30T16:01:36;18.20;98.50
4739;DHT22;2383;48.632;10.156;2023-07-30T16:05:38;18.20;98.90
4739;DHT22;2383;48.632;10.156;2023-07-30T16:09:40;18.10;98.50
4739;DHT22;2383;48.632;10.156;2023-07-30T16:13:42;17.90;98.50
4739;DHT22;2383;48.632;10.156;2023-07-30T16:17:44;17.90;98.10
4739;DHT22;2383;48.632;10.156;2023-07-30T16:21:46;17.70;97.90
4739;DHT22;2383;48.632;10.156;2023-07-30T16:25:50;18.20;97.80
4739;DHT22;2383;48.632;10.156;2023-07-30T16:29:52;17.30;97.80
4739;DHT22;2383;48.632;10.156;2023-07-30T16:33:54;17.90;97.70
4739;DHT22;2383;48.632;10.156;2023-07-30T16:37:56;18.00;97.80
4739;DHT22;2383;48.632;10.156;2023-07-30T16:41:59;17.90;97.10
4739;DHT22;2383;48.632;10.156;2023-07-30T16:46:01;17.90;97.00
4739;DHT22;2383;48.632;10.156;2023-07-30T16:50:05;18.20;97.20
4739;DHT22;2383;48.632;10.156;2023-07-30T16:54:08;17.80;97.80
4739;DHT22;2383;48.632;10.156;2023-07-30T16:58:15;18.10;96.90
4739;DHT22;2383;48.632;10.156;2023-07-30T17:02:17;18.20;97.50
4739;DHT22;2383;48.632;10.156;2023-07-30T17:06:19;17.90;96.90
4739;DHT22;2383;48.632;10.156;2023-07-30T17:10:21;17.30;97.30
4739;DHT22;2383;48.632;10.156;2023-07-30T17:14:23;17.60;97.50
4739;DHT22;2383;48.632;10.156;2023-07-30T17:18:26;17.40;97.40
4739;DHT22;2383;48.632;10.156;2023-07-30T17:22:28;17.50;96.80
4739;DHT22;2383;48.632;10.156;2023-07-30T17:26:32;18.00;96.50
4739;DHT22;2383;48.632;10.156;2023-07-30T17:30:34;17.70;96.10
4739;DHT22;2383;48.632;10.156;2023-07-30T17:34:36;17.20;96.80
4739;DHT22;2383;48.632;10.156;2023-07-30T17:38:38;17.30;97.00
4739;DHT22;2383;48.632;10.156;2023-07-30T17:42:40;17.20;97.10
4739;DHT22;2383;48.632;10.156;2023-07-30T17:46:42;17.20;97.30
4739;DHT22;2383;48.632;10.156;2023-07-30T17:50:44;17.30;97.00
4739;DHT22;2383;48.632;10.156;2023-07-30T17:54:50;17.20;96.10
4739;DHT22;2383;48.632;10.156;2023-07-30T17:58:52;17.30;96.00
4739;DHT22;2383;48.632;10.156;2023-07-30T18:02:54;17.30;95.10
4739;DHT22;2383;48.632;10.156;2023-07-30T18:06:56;17.90;94.80
4739;DHT22;2383;48.632;10.156;2023-07-30T18:10:58;17.80;94.50
4739;DHT22;2383;48.632;10.156;2023-07-30T18:15:00;16.50;95.40
4739;DHT22;2383;48.632;10.156;2023-07-30T18:19:02;16.60;95.10
4739;DHT22;2383;48.632;10.156;2023-07-30T18:23:05;16.50;95.60
4739;DHT22;2383;48.632;10.156;2023-07-30T18:27:07;17.30;93.90
4739;DHT22;2383;48.632;10.156;2023-07-30T18:31:09;16.60;94.10
4739;DHT22;2383;48.632;10.156;2023-07-30T18:35:12;15.90;94.80
4739;DHT22;2383;48.632;10.156;2023-07-30T18:39:14;17.10;94.30
4739;DHT22;2383;48.632;10.156;2023-07-30T18:43:15;17.00;93.80
4739;DHT22;2383;48.632;10.156;2023-07-30T18:47:19;17.10;94.10
4739;DHT22;2383;48.632;10.156;2023-07-30T18:51:24;17.10;93.70
4739;DHT22;2383;48.632;10.156;2023-07-30T18:55:26;17.10;93.90
4739;DHT22;2383;48.632;10.156;2023-07-30T18:59:28;17.30;93.70
4739;DHT22;2383;48.632;10.156;2023-07-30T19:03:30;16.50;93.50
4739;DHT22;2383;48.632;10.156;2023-07-30T19:07:32;16.50;94.20
4739;DHT22;2383;48.632;10.156;2023-07-30T19:11:34;16.40;94.10
4739;DHT22;2383;48.632;10.156;2023-07-30T19:15:37;16.20;94.50
4739;DHT22;2383;48.632;10.156;2023-07-30T19:19:39;16.30;94.70
4739;DHT22;2383;48.632;10.156;2023-07-30T19:23:41;16.00;94.40
4739;DHT22;2383;48.632;10.156;2023-07-30T19:27:43;16.60;94.00
4739;DHT22;2383;48.632;10.156;2023-07-30T19:31:45;16.70;93.70
4739;DHT22;2383;48.632;10.156;2023-07-30T19:35:47;16.80;93.50
4739;DHT22;2383;48.632;10.156;2023-07-30T19:39:52;16.80;93.20
4739;DHT22;2383;48.632;10.156;2023-07-30T19:43:54;17.10;93.20
4739;DHT22;2383;48.632;10.156;2023-07-30T19:47:56;17.10;93.00
4739;DHT22;2383;48.632;10.156;2023-07-30T19:51:59;17.00;93.20
4739;DHT22;2383;48.632;10.156;2023-07-30T19:56:01;17.30;94.70
4739;DHT22;2383;48.632;10.156;2023-07-30T20:00:04;17.30;93.50
4739;DHT22;2383;48.632;10.156;2023-07-30T20:04:09;17.30;93.60
4739;DHT22;2383;48.632;10.156;2023-07-30T20:08:11;17.30;93.90
4739;DHT22;2383;48.632;10.156;2023-07-30T20:12:13;17.40;93.60
4739;DHT22;2383;48.632;10.156;2023-07-30T20:16:15;17.40;94.20
4739;DHT22;2383;48.632;10.156;2023-07-30T20:20:17;17.40;94.90
4739;DHT22;2383;48.632;10.156;2023-07-30T20:24:20;17.30;95.60
4739;DHT22;2383;48.632;10.156;2023-07-30T20:28:22;17.20;95.60
4739;DHT22;2383;48.632;10.156;2023-07-30T20:32:24;17.10;95.20
4739;DHT22;2383;48.632;10.156;2023-07-30T20:36:29;17.10;95.90
4739;DHT22;2383;48.632;10.156;2023-07-30T20:40:31;16.80;95.20
4739;DHT22;2383;48.632;10.156;2023-07-30T20:44:33;16.70;95.40
4739;DHT22;2383;48.632;10.156;2023-07-30T20:48:35;16.70;95.40
4739;DHT22;2383;48.632;10.156;2023-07-30T20:52:39;16.50;95.60
4739;DHT22;2383;48.632;10.156;2023-07-30T20:56:43;16.50;95.90
4739;DHT22;2383;48.632;10.156;2023-07-30T21:00:45;16.40;96.10
4739;DHT22;2383;48.632;10.156;2023-07-30T21:04:48;16.20;95.90
4739;DHT22;2383;48.632;10.156;2023-07-30T21:08:49;16.10;95.90
4739;DHT22;2383;48.632;10.156;2023-07-30T21:12:52;16.00;96.00
4739;DHT22;2383;48.632;10.156;2023-07-30T21:16:54;16.10;96.60
4739;DHT22;2383;48.632;10.156;2023-07-30T21:20:56;15.50;97.70
4739;DHT22;2383;48.632;10.156;2023-07-30T21:24:57;15.20;98.30
4739;DHT22;2383;48.632;10.156;2023-07-30T21:28:59;15.20;98.20
4739;DHT22;2383;48.632;10.156;2023-07-30T21:33:01;15.20;98.50
4739;DHT22;2383;48.632;10.156;2023-07-30T21:37:04;15.30;98.20
4739;DHT22;2383;48.632;10.156;2023-07-30T21:41:08;15.30;98.50
4739;DHT22;2383;48.632;10.156;2023-07-30T21:45:10;15.60;98.60
4739;DHT22;2383;48.632;10.156;2023-07-30T21:49:12;15.30;98.60
4739;DHT22;2383;48.632;10.156;2023-07-30T21:53:14;15.20;98.70
4739;DHT22;2383;48.632;10.156;2023-07-30T21:57:20;15.10;99.00
4739;DHT22;2383;48.632;10.156;2023-07-30T22:01:22;15.00;99.10
4739;DHT22;2383;48.632;10.156;2023-07-30T22:05:24;15.00;99.20
4739;DHT22;2383;48.632;10.156;2023-07-30T22:09:26;14.80;99.30
4739;DHT22;2383;48.632;10.156;2023-07-30T22:13:29;14.70;99.40
4739;DHT22;2383;48.632;10.156;2023-07-30T22:17:31;14.70;99.60
4739;DHT22;2383;48.632;10.156;2023-07-30T22:21:34;14.60;99.80
4739;DHT22;2383;48.632;10.156;2023-07-30T22:25:36;14.60;99.70
4739;DHT22;2383;48.632;10.156;2023-07-30T22:29:38;14.50;99.60
4739;DHT22;2383;48.632;10.156;2023-07-30T22:33:39;14.60;99.70
4739;DHT22;2383;48.632;10.156;2023-07-30T22:37:42;14.30;99.70
4739;DHT22;2383;48.632;10.156;2023-07-30T22:41:44;13.90;99.90
4739;DHT22;2383;48.632;10.156;2023-07-30T22:45:46;14.00;99.90
4739;DHT22;2383;48.632;10.156;2023-07-30T22:49:48;14.00;99.90
4739;DHT22;2383;48.632;10.156;2023-07-30T22:53:50;14.00;99.90
4739;DHT22;2383;48.632;10.156;2023-07-30T22:57:52;13.70;99.90
4739;DHT22;2383;48.632;10.156;2023-07-30T23:01:54;13.50;99.90
4739;DHT22;2383;48.632;10.156;2023-07-30T23:05:56;13.30;99.90
4739;DHT22;2383;48.632;10.156;2023-07-30T23:09:58;13.50;99.90
4739;DHT22;2383;48.632;10.156;2023-07-30T23:14:00;13.20;99.90
4739;DHT22;2383;48.632;10.156;2023-07-30T23:18:02;13.10;99.90
4739;DHT22;2383;48.632;10.156;2023-07-30T23:22:04;13.10;99.90
4739;DHT22;2383;48.632;10.156;2023-07-30T23:26:06;13.10;99.90
4739;DHT22;2383;48.632;10.156;2023-07-30T23:30:08;12.90;99.90
4739;DHT22;2383;48.632;10.156;2023-07-30T23:34:10;12.90;99.90
4739;DHT22;2383;48.632;10.156;2023-07-30T23:38:12;12.80;99.90
4739;DHT22;2383;48.632;10.156;2023-07-30T23:42:14;13.00;99.90
4739;DHT22;2383;48.632;10.156;2023-07-30T23:46:16;12.90;99.90
4739;DHT22;2383;48.632;10.156;2023-07-30T23:50:18;12.70;99.90
4739;DHT22;2383;48.632;10.156;2023-07-30T23:54:20;13.00;99.90
4739;DHT22;2383;48.632;10.156;2023-07-30T23:58:22;13.10;99.90
